sensor_id;sensor_type;location;lat;lon;timestamp;temperature;humidity
55634;DHT22;41504;53.162;6.788;2023-10-19T00:00:55;8.80;99.60
55634;DHT22;41504;53.162;6.788;2023-10-19T00:03:22;8.70;99.40
55634;DHT22;41504;53.162;6.788;2023-10-19T00:05:49;8.70;99.60
55634;DHT22;41504;53.162;6.788;2023-10-19T00:08:15;8.70;99.60
55634;DHT22;41504;53.162;6.788;2023-10-19T00:10:52;8.70;99.70
55634;DHT22;41504;53.162;6.788;2023-10-19T00:13:33;8.70;99.80
55634;DHT22;41504;53.162;6.788;2023-10-19T00:16:08;8.70;99.90
55634;DHT22;41504;53.162;6.788;2023-10-19T00:18:43;8.70;99.90
55634;DHT22;41504;53.162;6.788;2023-10-19T00:21:09;8.70;99.90
55634;DHT22;41504;53.162;6.788;2023-10-19T00:23:54;8.70;99.90
55634;DHT22;41504;53.162;6.788;2023-10-19T00:26:24;8.70;99.90
55634;DHT22;41504;53.162;6.788;2023-10-19T00:28:54;8.70;99.90
55634;DHT22;41504;53.162;6.788;2023-10-19T00:31:27;8.70;99.90
55634;DHT22;41504;53.162;6.788;2023-10-19T00:33:53;8.70;99.90
55634;DHT22;41504;53.162;6.788;2023-10-19T00:36:23;8.60;99.90
55634;DHT22;41504;53.162;6.788;2023-10-19T00:38:53;8.70;99.90
55634;DHT22;41504;53.162;6.788;2023-10-19T00:41:24;8.70;99.90
55634;DHT22;41504;53.162;6.788;2023-10-19T00:44:00;8.60;99.90
55634;DHT22;41504;53.162;6.788;2023-10-19T00:46:30;8.60;99.90
55634;DHT22;41504;53.162;6.788;2023-10-19T00:49:05;8.60;99.90
55634;DHT22;41504;53.162;6.788;2023-10-19T00:51:45;8.60;99.90
55634;DHT22;41504;53.162;6.788;2023-10-19T00:54:39;8.60;99.90
55634;DHT22;41504;53.162;6.788;2023-10-19T00:57:18;8.50;99.90
55634;DHT22;41504;53.162;6.788;2023-10-19T00:59:57;8.60;99.90
55634;DHT22;41504;53.162;6.788;2023-10-19T01:02:38;8.60;99.90
55634;DHT22;41504;53.162;6.788;2023-10-19T01:05:09;8.50;99.90
55634;DHT22;41504;53.162;6.788;2023-10-19T01:07:39;8.50;99.90
55634;DHT22;41504;53.162;6.788;2023-10-19T01:10:06;8.50;99.90
55634;DHT22;41504;53.162;6.788;2023-10-19T01:12:44;8.50;99.90
55634;DHT22;41504;53.162;6.788;2023-10-19T01:15:11;8.50;99.90
55634;DHT22;41504;53.162;6.788;2023-10-19T01:17:51;8.50;99.90
55634;DHT22;41504;53.162;6.788;2023-10-19T01:20:20;8.50;99.90
55634;DHT22;41504;53.162;6.788;2023-10-19T01:22:55;8.50;99.90
55634;DHT22;41504;53.162;6.788;2023-10-19T01:25:57;8.50;99.90
55634;DHT22;41504;53.162;6.788;2023-10-19T01:28:24;8.50;99.90
55634;DHT22;41504;53.162;6.788;2023-10-19T01:31:12;8.50;99.90
55634;DHT22;41504;53.162;6.788;2023-10-19T01:33:57;8.50;99.90
55634;DHT22;41504;53.162;6.788;2023-10-19T01:36:24;8.50;99.90
55634;DHT22;41504;53.162;6.788;2023-10-19T01:38:51;8.50;99.90
55634;DHT22;41504;53.162;6.788;2023-10-19T01:41:19;8.50;99.90
55634;DHT22;41504;53.162;6.788;2023-10-19T01:43:47;8.50;99.90
55634;DHT22;41504;53.162;6.788;2023-10-19T01:46:16;8.50;99.90
55634;DHT22;41504;53.162;6.788;2023-10-19T01:48:53;8.60;99.90
55634;DHT22;41504;53.162;6.788;2023-10-19T01:51:23;8.50;99.90
55634;DHT22;41504;53.162;6.788;2023-10-19T01:53:50;8.50;99.90
55634;DHT22;41504;53.162;6.788;2023-10-19T01:56:17;8.50;99.90
55634;DHT22;41504;53.162;6.788;2023-10-19T01:58:45;8.50;99.90
55634;DHT22;41504;53.162;6.788;2023-10-19T02:01:15;8.50;99.90
55634;DHT22;41504;53.162;6.788;2023-10-19T02:03:57;8.50;99.90
55634;DHT22;41504;53.162;6.788;2023-10-19T02:06:25;8.50;99.90
55634;DHT22;41504;53.162;6.788;2023-10-19T02:09:04;8.50;99.90
55634;DHT22;41504;53.162;6.788;2023-10-19T02:11:44;8.40;99.90
55634;DHT22;41504;53.162;6.788;2023-10-19T02:14:12;8.40;99.90
55634;DHT22;41504;53.162;6.788;2023-10-19T02:16:42;8.50;99.90
55634;DHT22;41504;53.162;6.788;2023-10-19T02:19:09;8.40;99.90
55634;DHT22;41504;53.162;6.788;2023-10-19T02:21:35;8.40;99.90
55634;DHT22;41504;53.162;6.788;2023-10-19T02:24:10;8.40;99.90
55634;DHT22;41504;53.162;6.788;2023-10-19T02:26:43;8.50;99.90
55634;DHT22;41504;53.162;6.788;2023-10-19T02:29:09;8.50;99.90
55634;DHT22;41504;53.162;6.788;2023-10-19T02:31:40;8.50;99.90
55634;DHT22;41504;53.162;6.788;2023-10-19T02:34:07;8.50;99.90
55634;DHT22;41504;53.162;6.788;2023-10-19T02:36:35;8.40;99.90
55634;DHT22;41504;53.162;6.788;2023-10-19T02:39:05;8.50;99.90
55634;DHT22;41504;53.162;6.788;2023-10-19T02:44:03;8.40;99.90
55634;DHT22;41504;53.162;6.788;2023-10-19T02:46:37;8.40;99.90
55634;DHT22;41504;53.162;6.788;2023-10-19T02:49:08;8.40;99.90
55634;DHT22;41504;53.162;6.788;2023-10-19T02:51:44;8.40;99.90
55634;DHT22;41504;53.162;6.788;2023-10-19T02:54:11;8.40;99.90
55634;DHT22;41504;53.162;6.788;2023-10-19T02:56:54;8.40;99.90
55634;DHT22;41504;53.162;6.788;2023-10-19T02:59:23;8.40;99.90
55634;DHT22;41504;53.162;6.788;2023-10-19T03:01:53;8.40;99.90
55634;DHT22;41504;53.162;6.788;2023-10-19T03:04:38;8.40;99.90
55634;DHT22;41504;53.162;6.788;2023-10-19T03:07:05;8.40;99.90
55634;DHT22;41504;53.162;6.788;2023-10-19T03:09:32;8.40;99.90
55634;DHT22;41504;53.162;6.788;2023-10-19T03:12:02;8.40;99.90
55634;DHT22;41504;53.162;6.788;2023-10-19T03:14:29;8.40;99.90
55634;DHT22;41504;53.162;6.788;2023-10-19T03:16:57;8.40;99.90
55634;DHT22;41504;53.162;6.788;2023-10-19T03:19:23;8.40;99.90
55634;DHT22;41504;53.162;6.788;2023-10-19T03:21:50;8.40;99.90
55634;DHT22;41504;53.162;6.788;2023-10-19T03:24:17;8.40;99.90
55634;DHT22;41504;53.162;6.788;2023-10-19T03:27:08;8.40;99.90
55634;DHT22;41504;53.162;6.788;2023-10-19T03:29:39;8.40;99.90
55634;DHT22;41504;53.162;6.788;2023-10-19T03:32:06;8.40;99.90
55634;DHT22;41504;53.162;6.788;2023-10-19T03:34:33;8.40;99.90
55634;DHT22;41504;53.162;6.788;2023-10-19T03:36:59;8.40;99.90
55634;DHT22;41504;53.162;6.788;2023-10-19T03:39:32;8.40;99.90
55634;DHT22;41504;53.162;6.788;2023-10-19T03:41:59;8.40;99.90
55634;DHT22;41504;53.162;6.788;2023-10-19T03:44:25;8.40;99.90
55634;DHT22;41504;53.162;6.788;2023-10-19T03:46:51;8.40;99.90
55634;DHT22;41504;53.162;6.788;2023-10-19T03:49:43;8.40;99.90
55634;DHT22;41504;53.162;6.788;2023-10-19T03:52:09;8.40;99.90
55634;DHT22;41504;53.162;6.788;2023-10-19T03:54:35;8.40;99.90
55634;DHT22;41504;53.162;6.788;2023-10-19T03:57:12;8.40;99.90
55634;DHT22;41504;53.162;6.788;2023-10-19T03:59:42;8.50;99.90
55634;DHT22;41504;53.162;6.788;2023-10-19T04:02:08;8.50;99.90
55634;DHT22;41504;53.162;6.788;2023-10-19T04:04:42;8.50;99.90
55634;DHT22;41504;53.162;6.788;2023-10-19T04:07:17;8.40;99.90
55634;DHT22;41504;53.162;6.788;2023-10-19T04:09:50;8.40;99.90
55634;DHT22;41504;53.162;6.788;2023-10-19T04:12:25;8.40;99.90
55634;DHT22;41504;53.162;6.788;2023-10-19T04:14:54;8.50;99.90
55634;DHT22;41504;53.162;6.788;2023-10-19T04:17:22;8.50;99.90
55634;DHT22;41504;53.162;6.788;2023-10-19T04:19:50;8.50;99.90
55634;DHT22;41504;53.162;6.788;2023-10-19T04:22:17;8.50;99.90
55634;DHT22;41504;53.162;6.788;2023-10-19T04:24:53;8.50;99.90
55634;DHT22;41504;53.162;6.788;2023-10-19T04:27:19;8.50;99.90
55634;DHT22;41504;53.162;6.788;2023-10-19T04:29:48;8.50;99.90
55634;DHT22;41504;53.162;6.788;2023-10-19T04:32:18;8.50;99.90
55634;DHT22;41504;53.162;6.788;2023-10-19T04:34:53;8.50;99.90
55634;DHT22;41504;53.162;6.788;2023-10-19T04:37:18;8.50;99.90
55634;DHT22;41504;53.162;6.788;2023-10-19T04:39:45;8.50;99.90
55634;DHT22;41504;53.162;6.788;2023-10-19T04:42:11;8.50;99.90
55634;DHT22;41504;53.162;6.788;2023-10-19T04:44:37;8.50;99.90
55634;DHT22;41504;53.162;6.788;2023-10-19T04:47:03;8.50;99.90
55634;DHT22;41504;53.162;6.788;2023-10-19T04:49:29;8.50;99.90
55634;DHT22;41504;53.162;6.788;2023-10-19T04:51:55;8.50;99.90
55634;DHT22;41504;53.162;6.788;2023-10-19T04:54:23;8.50;99.90
55634;DHT22;41504;53.162;6.788;2023-10-19T04:56:49;8.50;99.90
55634;DHT22;41504;53.162;6.788;2023-10-19T04:59:18;8.50;99.90
55634;DHT22;41504;53.162;6.788;2023-10-19T05:01:44;8.50;99.90
55634;DHT22;41504;53.162;6.788;2023-10-19T05:04:10;8.50;99.90
55634;DHT22;41504;53.162;6.788;2023-10-19T05:06:38;8.50;99.90
55634;DHT22;41504;53.162;6.788;2023-10-19T05:09:04;8.50;99.90
55634;DHT22;41504;53.162;6.788;2023-10-19T05:11:31;8.50;99.90
55634;DHT22;41504;53.162;6.788;2023-10-19T05:13:57;8.50;99.90
55634;DHT22;41504;53.162;6.788;2023-10-19T05:16:22;8.50;99.90
55634;DHT22;41504;53.162;6.788;2023-10-19T05:18:51;8.50;99.90
55634;DHT22;41504;53.162;6.788;2023-10-19T05:21:16;8.50;99.90
55634;DHT22;41504;53.162;6.788;2023-10-19T05:23:42;8.50;99.90
55634;DHT22;41504;53.162;6.788;2023-10-19T05:26:08;8.50;99.90
55634;DHT22;41504;53.162;6.788;2023-10-19T05:28:34;8.50;99.90
55634;DHT22;41504;53.162;6.788;2023-10-19T05:30:59;8.50;99.90
55634;DHT22;41504;53.162;6.788;2023-10-19T05:33:27;8.50;99.90
55634;DHT22;41504;53.162;6.788;2023-10-19T05:35:55;8.50;99.90
55634;DHT22;41504;53.162;6.788;2023-10-19T05:38:20;8.50;99.90
55634;DHT22;41504;53.162;6.788;2023-10-19T05:40:48;8.50;99.90
55634;DHT22;41504;53.162;6.788;2023-10-19T05:43:15;8.50;99.90
55634;DHT22;41504;53.162;6.788;2023-10-19T05:45:41;8.60;99.90
55634;DHT22;41504;53.162;6.788;2023-10-19T05:48:07;8.50;99.90
55634;DHT22;41504;53.162;6.788;2023-10-19T05:50:36;8.60;99.90
55634;DHT22;41504;53.162;6.788;2023-10-19T05:53:08;8.60;99.90
55634;DHT22;41504;53.162;6.788;2023-10-19T05:55:34;8.60;99.90
55634;DHT22;41504;53.162;6.788;2023-10-19T05:58:01;8.60;99.90
55634;DHT22;41504;53.162;6.788;2023-10-19T06:00:30;8.60;99.90
55634;DHT22;41504;53.162;6.788;2023-10-19T06:03:02;8.50;99.90
55634;DHT22;41504;53.162;6.788;2023-10-19T06:05:28;8.50;99.90
55634;DHT22;41504;53.162;6.788;2023-10-19T06:07:56;8.50;99.90
55634;DHT22;41504;53.162;6.788;2023-10-19T06:10:22;8.60;99.90
55634;DHT22;41504;53.162;6.788;2023-10-19T06:12:49;8.60;99.90
55634;DHT22;41504;53.162;6.788;2023-10-19T06:15:17;8.60;99.90
55634;DHT22;41504;53.162;6.788;2023-10-19T06:17:43;8.60;99.90
55634;DHT22;41504;53.162;6.788;2023-10-19T06:20:10;8.60;99.90
55634;DHT22;41504;53.162;6.788;2023-10-19T06:22:58;8.50;99.90
55634;DHT22;41504;53.162;6.788;2023-10-19T06:25:30;8.50;99.90
55634;DHT22;41504;53.162;6.788;2023-10-19T06:27:56;8.50;99.90
55634;DHT22;41504;53.162;6.788;2023-10-19T06:30:23;8.60;99.90
55634;DHT22;41504;53.162;6.788;2023-10-19T06:32:51;8.50;99.90
55634;DHT22;41504;53.162;6.788;2023-10-19T06:35:18;8.60;99.90
55634;DHT22;41504;53.162;6.788;2023-10-19T06:37:44;8.60;99.90
55634;DHT22;41504;53.162;6.788;2023-10-19T06:40:11;8.60;99.90
55634;DHT22;41504;53.162;6.788;2023-10-19T06:42:38;8.60;99.90
55634;DHT22;41504;53.162;6.788;2023-10-19T06:45:04;8.60;99.90
55634;DHT22;41504;53.162;6.788;2023-10-19T06:47:31;8.60;99.90
55634;DHT22;41504;53.162;6.788;2023-10-19T06:49:56;8.60;99.90
55634;DHT22;41504;53.162;6.788;2023-10-19T06:52:23;8.60;99.90
55634;DHT22;41504;53.162;6.788;2023-10-19T06:54:48;8.70;99.90
55634;DHT22;41504;53.162;6.788;2023-10-19T06:57:14;8.60;99.90
55634;DHT22;41504;53.162;6.788;2023-10-19T06:59:40;8.60;99.90
55634;DHT22;41504;53.162;6.788;2023-10-19T07:02:06;8.60;99.90
55634;DHT22;41504;53.162;6.788;2023-10-19T07:04:33;8.60;99.90
55634;DHT22;41504;53.162;6.788;2023-10-19T07:06:59;8.60;99.90
55634;DHT22;41504;53.162;6.788;2023-10-19T07:09:26;8.60;99.90
55634;DHT22;41504;53.162;6.788;2023-10-19T07:11:52;8.60;99.90
55634;DHT22;41504;53.162;6.788;2023-10-19T07:14:22;8.60;99.90
55634;DHT22;41504;53.162;6.788;2023-10-19T07:16:49;8.60;99.90
55634;DHT22;41504;53.162;6.788;2023-10-19T07:19:17;8.60;99.90
55634;DHT22;41504;53.162;6.788;2023-10-19T07:21:43;8.60;99.90
55634;DHT22;41504;53.162;6.788;2023-10-19T07:24:14;8.60;99.90
55634;DHT22;41504;53.162;6.788;2023-10-19T07:26:40;8.60;99.90
55634;DHT22;41504;53.162;6.788;2023-10-19T07:29:21;8.60;99.90
55634;DHT22;41504;53.162;6.788;2023-10-19T07:31:47;8.70;99.90
55634;DHT22;41504;53.162;6.788;2023-10-19T07:34:13;8.60;99.90
55634;DHT22;41504;53.162;6.788;2023-10-19T07:36:41;8.70;99.90
55634;DHT22;41504;53.162;6.788;2023-10-19T07:39:10;8.70;99.90
55634;DHT22;41504;53.162;6.788;2023-10-19T07:41:44;8.70;99.90
55634;DHT22;41504;53.162;6.788;2023-10-19T07:44:10;8.70;99.90
55634;DHT22;41504;53.162;6.788;2023-10-19T07:46:37;8.70;99.90
55634;DHT22;41504;53.162;6.788;2023-10-19T07:49:03;8.70;99.90
55634;DHT22;41504;53.162;6.788;2023-10-19T07:51:32;8.70;99.90
55634;DHT22;41504;53.162;6.788;2023-10-19T07:53:58;8.70;99.90
55634;DHT22;41504;53.162;6.788;2023-10-19T07:56:23;8.60;99.90
55634;DHT22;41504;53.162;6.788;2023-10-19T07:58:50;8.60;99.90
55634;DHT22;41504;53.162;6.788;2023-10-19T08:01:15;8.60;99.90
55634;DHT22;41504;53.162;6.788;2023-10-19T08:03:41;8.70;99.90
55634;DHT22;41504;53.162;6.788;2023-10-19T08:06:07;8.70;99.90
55634;DHT22;41504;53.162;6.788;2023-10-19T08:08:33;8.60;99.90
55634;DHT22;41504;53.162;6.788;2023-10-19T08:11:02;8.80;99.90
55634;DHT22;41504;53.162;6.788;2023-10-19T08:13:28;8.70;99.90
55634;DHT22;41504;53.162;6.788;2023-10-19T08:15:53;8.70;99.90
55634;DHT22;41504;53.162;6.788;2023-10-19T08:18:20;8.70;99.90
55634;DHT22;41504;53.162;6.788;2023-10-19T08:20:46;8.70;99.90
55634;DHT22;41504;53.162;6.788;2023-10-19T08:23:14;8.70;99.90
55634;DHT22;41504;53.162;6.788;2023-10-19T08:25:42;8.70;99.90
55634;DHT22;41504;53.162;6.788;2023-10-19T08:28:09;8.70;99.90
55634;DHT22;41504;53.162;6.788;2023-10-19T08:30:37;8.70;99.90
55634;DHT22;41504;53.162;6.788;2023-10-19T08:33:03;8.70;99.90
55634;DHT22;41504;53.162;6.788;2023-10-19T08:35:29;8.80;99.90
55634;DHT22;41504;53.162;6.788;2023-10-19T08:37:57;8.80;99.90
55634;DHT22;41504;53.162;6.788;2023-10-19T08:40:26;8.80;99.90
55634;DHT22;41504;53.162;6.788;2023-10-19T08:42:53;8.70;99.90
55634;DHT22;41504;53.162;6.788;2023-10-19T08:45:19;8.70;99.90
55634;DHT22;41504;53.162;6.788;2023-10-19T08:50:18;8.80;99.90
55634;DHT22;41504;53.162;6.788;2023-10-19T08:52:52;8.80;99.90
55634;DHT22;41504;53.162;6.788;2023-10-19T08:55:19;8.80;99.90
55634;DHT22;41504;53.162;6.788;2023-10-19T08:57:49;8.80;99.90
55634;DHT22;41504;53.162;6.788;2023-10-19T09:00:17;8.80;99.90
55634;DHT22;41504;53.162;6.788;2023-10-19T09:02:45;8.80;99.90
55634;DHT22;41504;53.162;6.788;2023-10-19T09:05:11;8.90;99.90
55634;DHT22;41504;53.162;6.788;2023-10-19T09:07:52;8.90;99.90
55634;DHT22;41504;53.162;6.788;2023-10-19T09:10:25;8.90;99.90
55634;DHT22;41504;53.162;6.788;2023-10-19T09:12:59;8.90;99.90
55634;DHT22;41504;53.162;6.788;2023-10-19T09:15:27;8.90;99.90
55634;DHT22;41504;53.162;6.788;2023-10-19T09:17:55;8.90;99.90
55634;DHT22;41504;53.162;6.788;2023-10-19T09:20:21;8.90;99.90
55634;DHT22;41504;53.162;6.788;2023-10-19T09:22:54;9.00;99.90
55634;DHT22;41504;53.162;6.788;2023-10-19T09:25:23;9.00;99.90
55634;DHT22;41504;53.162;6.788;2023-10-19T09:27:50;9.00;99.90
55634;DHT22;41504;53.162;6.788;2023-10-19T09:30:22;9.00;99.90
55634;DHT22;41504;53.162;6.788;2023-10-19T09:32:50;9.10;99.90
55634;DHT22;41504;53.162;6.788;2023-10-19T09:35:19;9.10;99.90
55634;DHT22;41504;53.162;6.788;2023-10-19T09:37:45;9.10;99.90
55634;DHT22;41504;53.162;6.788;2023-10-19T09:40:13;9.10;99.90
55634;DHT22;41504;53.162;6.788;2023-10-19T09:42:40;9.10;99.90
55634;DHT22;41504;53.162;6.788;2023-10-19T09:45:12;9.10;99.90
55634;DHT22;41504;53.162;6.788;2023-10-19T09:47:41;9.10;99.90
55634;DHT22;41504;53.162;6.788;2023-10-19T09:50:11;9.10;99.90
55634;DHT22;41504;53.162;6.788;2023-10-19T09:52:39;9.10;99.90
55634;DHT22;41504;53.162;6.788;2023-10-19T09:55:19;9.20;99.90
55634;DHT22;41504;53.162;6.788;2023-10-19T09:58:12;9.10;99.90
55634;DHT22;41504;53.162;6.788;2023-10-19T10:00:49;9.10;99.90
55634;DHT22;41504;53.162;6.788;2023-10-19T10:03:49;9.20;99.90
55634;DHT22;41504;53.162;6.788;2023-10-19T10:09:20;9.20;99.90
55634;DHT22;41504;53.162;6.788;2023-10-19T10:11:49;9.20;99.90
55634;DHT22;41504;53.162;6.788;2023-10-19T10:14:25;9.20;99.90
55634;DHT22;41504;53.162;6.788;2023-10-19T10:17:02;9.20;99.90
55634;DHT22;41504;53.162;6.788;2023-10-19T10:19:28;9.30;99.90
55634;DHT22;41504;53.162;6.788;2023-10-19T10:22:10;9.20;99.90
55634;DHT22;41504;53.162;6.788;2023-10-19T10:24:44;9.20;99.90
55634;DHT22;41504;53.162;6.788;2023-10-19T10:27:10;9.30;99.90
55634;DHT22;41504;53.162;6.788;2023-10-19T10:29:57;9.30;99.90
55634;DHT22;41504;53.162;6.788;2023-10-19T10:38:10;9.40;99.90
55634;DHT22;41504;53.162;6.788;2023-10-19T10:40:48;9.40;99.90
55634;DHT22;41504;53.162;6.788;2023-10-19T10:43:14;9.40;99.90
55634;DHT22;41504;53.162;6.788;2023-10-19T10:45:41;9.40;99.90
55634;DHT22;41504;53.162;6.788;2023-10-19T10:48:14;9.50;99.90
55634;DHT22;41504;53.162;6.788;2023-10-19T10:50:40;9.50;99.90
55634;DHT22;41504;53.162;6.788;2023-10-19T10:53:11;9.50;99.90
55634;DHT22;41504;53.162;6.788;2023-10-19T10:55:37;9.50;99.90
55634;DHT22;41504;53.162;6.788;2023-10-19T10:58:08;9.50;99.90
55634;DHT22;41504;53.162;6.788;2023-10-19T11:00:34;9.50;99.90
55634;DHT22;41504;53.162;6.788;2023-10-19T11:03:07;9.50;99.90
55634;DHT22;41504;53.162;6.788;2023-10-19T11:05:35;9.50;99.90
55634;DHT22;41504;53.162;6.788;2023-10-19T11:10:31;9.60;99.90
55634;DHT22;41504;53.162;6.788;2023-10-19T11:13:07;9.60;99.90
55634;DHT22;41504;53.162;6.788;2023-10-19T11:15:53;9.60;99.90
55634;DHT22;41504;53.162;6.788;2023-10-19T11:20:58;9.60;99.90
55634;DHT22;41504;53.162;6.788;2023-10-19T11:23:47;9.70;99.90
55634;DHT22;41504;53.162;6.788;2023-10-19T11:26:20;9.70;99.90
55634;DHT22;41504;53.162;6.788;2023-10-19T11:28:46;9.70;99.90
55634;DHT22;41504;53.162;6.788;2023-10-19T11:31:23;9.80;99.90
55634;DHT22;41504;53.162;6.788;2023-10-19T11:33:52;9.80;99.90
55634;DHT22;41504;53.162;6.788;2023-10-19T11:36:19;9.80;99.90
55634;DHT22;41504;53.162;6.788;2023-10-19T11:38:47;9.90;99.90
55634;DHT22;41504;53.162;6.788;2023-10-19T11:41:15;9.90;99.90
55634;DHT22;41504;53.162;6.788;2023-10-19T11:43:42;9.90;99.90
55634;DHT22;41504;53.162;6.788;2023-10-19T11:46:09;9.90;99.90
55634;DHT22;41504;53.162;6.788;2023-10-19T11:48:36;9.90;99.90
55634;DHT22;41504;53.162;6.788;2023-10-19T11:51:02;9.80;99.90
55634;DHT22;41504;53.162;6.788;2023-10-19T11:53:38;9.80;99.90
55634;DHT22;41504;53.162;6.788;2023-10-19T11:56:10;9.80;99.90
55634;DHT22;41504;53.162;6.788;2023-10-19T11:58:39;9.80;99.90
55634;DHT22;41504;53.162;6.788;2023-10-19T12:01:08;9.80;99.90
55634;DHT22;41504;53.162;6.788;2023-10-19T12:03:37;9.80;99.90
55634;DHT22;41504;53.162;6.788;2023-10-19T12:06:08;9.80;99.90
55634;DHT22;41504;53.162;6.788;2023-10-19T12:08:35;9.80;99.90
55634;DHT22;41504;53.162;6.788;2023-10-19T12:11:04;9.80;99.90
55634;DHT22;41504;53.162;6.788;2023-10-19T12:13:35;9.80;99.90
55634;DHT22;41504;53.162;6.788;2023-10-19T12:16:03;9.80;99.90
55634;DHT22;41504;53.162;6.788;2023-10-19T12:18:30;9.80;99.90
55634;DHT22;41504;53.162;6.788;2023-10-19T12:20:55;9.80;99.90
55634;DHT22;41504;53.162;6.788;2023-10-19T12:23:26;9.80;99.90
55634;DHT22;41504;53.162;6.788;2023-10-19T12:25:52;9.80;99.90
55634;DHT22;41504;53.162;6.788;2023-10-19T12:28:18;9.80;99.90
55634;DHT22;41504;53.162;6.788;2023-10-19T12:30:44;9.80;99.90
55634;DHT22;41504;53.162;6.788;2023-10-19T12:33:10;9.80;99.90
55634;DHT22;41504;53.162;6.788;2023-10-19T12:35:41;9.90;99.90
55634;DHT22;41504;53.162;6.788;2023-10-19T12:38:25;9.80;99.90
55634;DHT22;41504;53.162;6.788;2023-10-19T12:40:51;9.80;99.90
55634;DHT22;41504;53.162;6.788;2023-10-19T12:43:18;9.80;99.90
55634;DHT22;41504;53.162;6.788;2023-10-19T12:45:50;9.80;99.90
55634;DHT22;41504;53.162;6.788;2023-10-19T12:48:19;9.80;99.90
55634;DHT22;41504;53.162;6.788;2023-10-19T12:50:46;9.80;99.90
55634;DHT22;41504;53.162;6.788;2023-10-19T12:53:12;9.80;99.90
55634;DHT22;41504;53.162;6.788;2023-10-19T12:55:39;9.80;99.90
55634;DHT22;41504;53.162;6.788;2023-10-19T12:58:05;9.70;99.90
55634;DHT22;41504;53.162;6.788;2023-10-19T13:00:37;9.80;99.90
55634;DHT22;41504;53.162;6.788;2023-10-19T13:03:10;9.70;99.90
55634;DHT22;41504;53.162;6.788;2023-10-19T13:05:40;9.70;99.90
55634;DHT22;41504;53.162;6.788;2023-10-19T13:08:13;9.60;99.90
55634;DHT22;41504;53.162;6.788;2023-10-19T13:10:40;9.70;99.90
55634;DHT22;41504;53.162;6.788;2023-10-19T13:13:09;9.70;99.90
55634;DHT22;41504;53.162;6.788;2023-10-19T13:15:38;9.70;99.90
55634;DHT22;41504;53.162;6.788;2023-10-19T13:18:06;9.70;99.90
55634;DHT22;41504;53.162;6.788;2023-10-19T13:20:39;9.70;99.90
55634;DHT22;41504;53.162;6.788;2023-10-19T13:23:10;9.70;99.90
55634;DHT22;41504;53.162;6.788;2023-10-19T13:25:41;9.70;99.90
55634;DHT22;41504;53.162;6.788;2023-10-19T13:28:13;9.70;99.90
55634;DHT22;41504;53.162;6.788;2023-10-19T13:30:47;9.70;99.90
55634;DHT22;41504;53.162;6.788;2023-10-19T13:33:13;9.70;99.90
55634;DHT22;41504;53.162;6.788;2023-10-19T13:35:40;9.60;99.90
55634;DHT22;41504;53.162;6.788;2023-10-19T13:38:07;9.70;99.90
55634;DHT22;41504;53.162;6.788;2023-10-19T13:40:37;9.70;99.90
55634;DHT22;41504;53.162;6.788;2023-10-19T13:43:05;9.70;99.90
55634;DHT22;41504;53.162;6.788;2023-10-19T13:45:36;9.70;99.90
55634;DHT22;41504;53.162;6.788;2023-10-19T13:48:02;9.70;99.90
55634;DHT22;41504;53.162;6.788;2023-10-19T13:50:29;9.70;99.90
55634;DHT22;41504;53.162;6.788;2023-10-19T13:52:56;9.60;99.90
55634;DHT22;41504;53.162;6.788;2023-10-19T13:55:26;9.70;99.90
55634;DHT22;41504;53.162;6.788;2023-10-19T13:57:52;9.70;99.90
55634;DHT22;41504;53.162;6.788;2023-10-19T14:00:19;9.70;99.90
55634;DHT22;41504;53.162;6.788;2023-10-19T14:02:51;9.70;99.90
55634;DHT22;41504;53.162;6.788;2023-10-19T14:05:18;9.60;99.90
55634;DHT22;41504;53.162;6.788;2023-10-19T14:07:45;9.60;99.90
55634;DHT22;41504;53.162;6.788;2023-10-19T14:10:12;9.70;99.90
55634;DHT22;41504;53.162;6.788;2023-10-19T14:12:39;9.70;99.90
55634;DHT22;41504;53.162;6.788;2023-10-19T14:15:14;9.60;99.90
55634;DHT22;41504;53.162;6.788;2023-10-19T14:17:43;9.70;99.90
55634;DHT22;41504;53.162;6.788;2023-10-19T14:20:12;9.60;99.90
55634;DHT22;41504;53.162;6.788;2023-10-19T14:22:41;9.90;99.90
55634;DHT22;41504;53.162;6.788;2023-10-19T14:25:09;9.60;99.90
55634;DHT22;41504;53.162;6.788;2023-10-19T14:30:11;9.60;99.90
55634;DHT22;41504;53.162;6.788;2023-10-19T14:32:45;9.60;99.90
55634;DHT22;41504;53.162;6.788;2023-10-19T14:35:15;9.60;99.90
55634;DHT22;41504;53.162;6.788;2023-10-19T14:37:46;9.60;99.90
55634;DHT22;41504;53.162;6.788;2023-10-19T14:40:24;9.60;99.90
55634;DHT22;41504;53.162;6.788;2023-10-19T14:42:53;9.60;99.90
55634;DHT22;41504;53.162;6.788;2023-10-19T14:45:20;9.60;99.90
55634;DHT22;41504;53.162;6.788;2023-10-19T14:47:50;9.60;99.90
55634;DHT22;41504;53.162;6.788;2023-10-19T14:50:25;9.60;99.90
55634;DHT22;41504;53.162;6.788;2023-10-19T14:52:53;9.60;99.90
55634;DHT22;41504;53.162;6.788;2023-10-19T14:55:22;9.60;99.90
55634;DHT22;41504;53.162;6.788;2023-10-19T14:57:50;9.60;99.90
55634;DHT22;41504;53.162;6.788;2023-10-19T15:00:19;9.50;99.90
55634;DHT22;41504;53.162;6.788;2023-10-19T15:02:49;9.50;99.90
55634;DHT22;41504;53.162;6.788;2023-10-19T15:05:16;9.50;99.90
55634;DHT22;41504;53.162;6.788;2023-10-19T15:07:43;9.50;99.90
55634;DHT22;41504;53.162;6.788;2023-10-19T15:10:10;9.50;99.90
55634;DHT22;41504;53.162;6.788;2023-10-19T15:12:39;9.50;99.90
55634;DHT22;41504;53.162;6.788;2023-10-19T15:15:06;9.50;99.90
55634;DHT22;41504;53.162;6.788;2023-10-19T15:17:33;9.50;99.90
55634;DHT22;41504;53.162;6.788;2023-10-19T15:19:59;9.50;99.90
55634;DHT22;41504;53.162;6.788;2023-10-19T15:22:25;9.50;99.90
55634;DHT22;41504;53.162;6.788;2023-10-19T15:24:51;9.50;99.90
55634;DHT22;41504;53.162;6.788;2023-10-19T15:27:23;9.50;99.90
55634;DHT22;41504;53.162;6.788;2023-10-19T15:29:49;9.50;99.90
55634;DHT22;41504;53.162;6.788;2023-10-19T15:32:15;9.50;99.90
55634;DHT22;41504;53.162;6.788;2023-10-19T15:34:41;9.50;99.90
55634;DHT22;41504;53.162;6.788;2023-10-19T15:37:07;9.50;99.90
55634;DHT22;41504;53.162;6.788;2023-10-19T15:39:33;9.50;99.90
55634;DHT22;41504;53.162;6.788;2023-10-19T15:41:58;9.50;99.90
55634;DHT22;41504;53.162;6.788;2023-10-19T15:44:25;9.50;99.90
55634;DHT22;41504;53.162;6.788;2023-10-19T15:46:51;9.50;99.90
55634;DHT22;41504;53.162;6.788;2023-10-19T15:49:18;9.50;99.90
55634;DHT22;41504;53.162;6.788;2023-10-19T15:51:45;9.50;99.90
55634;DHT22;41504;53.162;6.788;2023-10-19T15:54:11;9.50;99.90
55634;DHT22;41504;53.162;6.788;2023-10-19T15:56:37;9.50;99.90
55634;DHT22;41504;53.162;6.788;2023-10-19T15:59:03;9.50;99.90
55634;DHT22;41504;53.162;6.788;2023-10-19T16:01:29;9.50;99.90
55634;DHT22;41504;53.162;6.788;2023-10-19T16:03:56;9.40;99.90
55634;DHT22;41504;53.162;6.788;2023-10-19T16:06:25;9.40;99.90
55634;DHT22;41504;53.162;6.788;2023-10-19T16:08:51;9.40;99.90
55634;DHT22;41504;53.162;6.788;2023-10-19T16:11:18;9.40;99.90
55634;DHT22;41504;53.162;6.788;2023-10-19T16:13:43;9.40;99.90
55634;DHT22;41504;53.162;6.788;2023-10-19T16:16:10;9.40;99.90
55634;DHT22;41504;53.162;6.788;2023-10-19T16:18:36;9.40;99.90
55634;DHT22;41504;53.162;6.788;2023-10-19T16:21:08;9.40;99.90